createdAt,value
2019-03-29T00:01:07.721Z,8.83
2019-03-29T00:03:36.713Z,9.70
2019-03-29T00:06:05.788Z,8.33
2019-03-29T00:08:35.970Z,9.03
2019-03-29T00:11:05.429Z,10.63
2019-03-29T00:13:34.417Z,11.97
2019-03-29T00:16:03.353Z,11.70
2019-03-29T00:18:32.353Z,12.03
2019-03-29T00:21:01.381Z,14.10
2019-03-29T00:23:30.460Z,9.73
2019-03-29T00:25:59.498Z,11.03
2019-03-29T00:28:28.483Z,8.83
2019-03-29T00:30:57.496Z,13.90
2019-03-29T00:33:26.418Z,10.27
2019-03-29T00:35:55.445Z,10.47
2019-03-29T00:38:24.483Z,10.63
2019-03-29T00:40:53.502Z,10.77
2019-03-29T00:43:22.521Z,9.07
2019-03-29T00:45:51.562Z,10.60
2019-03-29T00:48:21.229Z,10.90
2019-03-29T00:50:50.826Z,11.97
2019-03-29T00:53:19.822Z,11.87
2019-03-29T00:55:48.846Z,11.10
2019-03-29T00:58:17.918Z,12.07
2019-03-29T01:00:46.954Z,10.20
2019-03-29T01:03:15.940Z,8.77
2019-03-29T01:05:44.929Z,13.83
2019-03-29T01:08:14.141Z,10.97
2019-03-29T01:10:43.142Z,11.37
2019-03-29T01:13:12.153Z,9.63
2019-03-29T01:15:41.136Z,11.37
2019-03-29T01:18:10.187Z,10.50
2019-03-29T01:20:39.222Z,8.50
2019-03-29T01:23:08.238Z,9.87
2019-03-29T01:25:37.230Z,9.97
2019-03-29T01:28:06.240Z,9.70
2019-03-29T01:30:35.238Z,9.77
2019-03-29T01:33:04.249Z,10.90
2019-03-29T01:35:33.289Z,10.90
2019-03-29T01:38:02.302Z,10.77
2019-03-29T01:40:31.297Z,13.50
2019-03-29T01:43:00.306Z,11.77
2019-03-29T01:45:29.381Z,13.00
2019-03-29T01:47:58.469Z,14.47
2019-03-29T01:50:27.379Z,16.63
2019-03-29T01:52:56.389Z,13.80
2019-03-29T01:55:25.297Z,11.17
2019-03-29T01:57:54.274Z,9.80
2019-03-29T02:00:24.860Z,9.00
2019-03-29T02:02:53.888Z,13.83
2019-03-29T02:05:22.872Z,15.50
2019-03-29T02:07:51.806Z,15.17
2019-03-29T02:10:20.914Z,12.10
2019-03-29T02:12:49.917Z,12.70
2019-03-29T02:15:18.909Z,11.20
2019-03-29T02:17:47.984Z,10.97
2019-03-29T02:20:16.909Z,13.83
2019-03-29T02:22:45.935Z,13.37
2019-03-29T02:25:15.320Z,11.37
2019-03-29T02:27:45.128Z,11.03
2019-03-29T02:30:14.396Z,12.07
2019-03-29T02:32:43.397Z,10.30
2019-03-29T02:35:12.383Z,13.07
2019-03-29T02:37:41.430Z,12.70
2019-03-29T02:40:10.700Z,14.10
2019-03-29T02:42:39.712Z,10.43
2019-03-29T02:45:10.505Z,12.77
2019-03-29T02:47:39.498Z,12.47
2019-03-29T02:50:09.229Z,10.27
2019-03-29T02:52:38.293Z,10.90
2019-03-29T02:55:07.305Z,12.83
2019-03-29T02:57:36.353Z,10.07
2019-03-29T03:00:07.000Z,10.27
2019-03-29T03:02:36.202Z,11.27
2019-03-29T03:05:05.449Z,11.27
2019-03-29T03:07:34.438Z,10.67
2019-03-29T03:10:04.963Z,11.07
2019-03-29T03:12:33.957Z,11.53
2019-03-29T03:15:02.981Z,14.30
2019-03-29T03:17:31.970Z,15.73
2019-03-29T03:20:00.994Z,16.27
2019-03-29T03:22:30.098Z,14.47
2019-03-29T03:24:59.121Z,14.00
2019-03-29T03:27:28.105Z,15.43
2019-03-29T03:29:57.123Z,14.13
2019-03-29T03:32:26.130Z,14.33
2019-03-29T03:34:55.181Z,14.77
2019-03-29T03:37:24.148Z,12.63
2019-03-29T03:39:53.206Z,13.50
2019-03-29T03:42:22.209Z,12.67
2019-03-29T03:44:51.221Z,12.20
2019-03-29T03:47:20.219Z,11.27
2019-03-29T03:49:49.268Z,11.83
2019-03-29T03:52:18.326Z,12.60
2019-03-29T03:54:47.337Z,11.23
2019-03-29T03:57:16.699Z,12.83
2019-03-29T03:59:46.026Z,12.20
2019-03-29T04:02:15.056Z,12.23
2019-03-29T04:04:44.044Z,11.53
2019-03-29T04:07:13.165Z,12.10
2019-03-29T04:09:49.835Z,14.17
2019-03-29T04:12:12.771Z,12.50
2019-03-29T04:14:41.749Z,10.60
2019-03-29T04:17:10.673Z,14.33
2019-03-29T04:19:39.734Z,14.13
2019-03-29T04:22:08.738Z,15.23
2019-03-29T04:24:37.752Z,15.07
2019-03-29T04:27:06.748Z,16.63
2019-03-29T04:29:35.766Z,15.87
2019-03-29T04:32:04.774Z,14.37
2019-03-29T04:34:33.783Z,11.63
2019-03-29T04:37:02.798Z,10.80
2019-03-29T04:39:31.796Z,14.90
2019-03-29T04:42:00.816Z,13.40
2019-03-29T04:44:29.919Z,12.47
2019-03-29T04:46:58.949Z,12.63
2019-03-29T04:49:27.941Z,14.17
2019-03-29T04:51:58.020Z,14.33
2019-03-29T04:54:27.023Z,12.70
2019-03-29T04:56:56.095Z,14.17
2019-03-29T04:59:32.465Z,13.93
2019-03-29T05:02:01.549Z,14.60
2019-03-29T05:04:30.584Z,15.40
2019-03-29T05:06:59.654Z,13.63
2019-03-29T05:09:28.713Z,14.00
2019-03-29T05:11:57.723Z,13.53
2019-03-29T05:14:26.717Z,12.73
2019-03-29T05:16:55.664Z,15.57
2019-03-29T05:19:24.654Z,14.17
2019-03-29T05:21:53.686Z,13.20
2019-03-29T05:24:22.692Z,17.73
2019-03-29T05:26:51.721Z,14.67
2019-03-29T05:29:20.721Z,18.10
2019-03-29T05:31:49.737Z,16.43
2019-03-29T05:34:18.718Z,13.40
2019-03-29T05:36:47.759Z,11.97
2019-03-29T05:39:16.730Z,11.90
2019-03-29T05:41:45.745Z,11.47
2019-03-29T05:44:14.690Z,13.13
2019-03-29T05:46:43.694Z,9.83
2019-03-29T05:49:12.683Z,9.57
2019-03-29T05:51:41.690Z,8.13
2019-03-29T05:54:30.373Z,7.63
2019-03-29T05:56:59.390Z,7.50
2019-03-29T05:59:28.390Z,7.20
2019-03-29T06:01:57.406Z,7.53
2019-03-29T06:04:26.455Z,7.03
2019-03-29T06:06:55.449Z,7.40
2019-03-29T06:09:24.441Z,7.17
2019-03-29T06:11:53.464Z,7.53
2019-03-29T06:14:22.502Z,7.10
2019-03-29T06:16:51.522Z,7.30
2019-03-29T06:19:20.586Z,7.73
2019-03-29T06:21:49.729Z,7.03
2019-03-29T06:24:18.699Z,7.20
2019-03-29T06:26:47.749Z,7.20
2019-03-29T06:29:16.759Z,7.27
2019-03-29T06:31:45.756Z,10.03
2019-03-29T06:34:14.816Z,11.43
2019-03-29T06:36:44.329Z,15.20
2019-03-29T06:39:13.386Z,15.58
2019-03-29T06:41:43.331Z,15.28
2019-03-29T06:44:13.333Z,17.67
2019-03-29T06:46:42.338Z,17.27
2019-03-29T06:49:11.364Z,17.62
2019-03-29T06:51:40.402Z,17.95
2019-03-29T06:54:09.423Z,17.70
2019-03-29T06:56:38.430Z,16.75
2019-03-29T06:59:07.468Z,17.60
2019-03-29T07:01:36.483Z,16.55
2019-03-29T07:04:06.583Z,17.57
2019-03-29T07:06:35.580Z,16.48
2019-03-29T07:09:05.686Z,17.62
2019-03-29T07:11:34.683Z,17.57
2019-03-29T07:14:03.779Z,16.20
2019-03-29T07:16:32.883Z,15.48
2019-03-29T07:19:05.003Z,14.18
2019-03-29T07:21:32.999Z,14.10
2019-03-29T07:24:02.139Z,11.60
2019-03-29T07:26:31.123Z,12.88
2019-03-29T07:29:00.153Z,12.07
2019-03-29T07:34:59.523Z,12.75
2019-03-29T07:37:28.563Z,12.50
2019-03-29T07:39:57.600Z,12.35
2019-03-29T07:42:26.610Z,13.60
2019-03-29T07:44:55.668Z,13.90
2019-03-29T07:47:24.677Z,13.65
2019-03-29T07:49:53.701Z,15.03
2019-03-29T07:52:23.878Z,13.13
2019-03-29T07:54:53.035Z,13.62
2019-03-29T07:57:22.030Z,14.80
2019-03-29T07:59:51.108Z,13.93
2019-03-29T08:02:20.272Z,12.90
2019-03-29T08:04:49.300Z,13.18
2019-03-29T08:07:27.255Z,14.65
2019-03-29T08:09:48.942Z,13.20
2019-03-29T08:12:18.007Z,12.47
2019-03-29T08:14:47.093Z,11.45
2019-03-29T08:17:16.103Z,11.25
2019-03-29T08:19:45.142Z,11.83
2019-03-29T08:22:14.152Z,11.85
2019-03-29T08:24:43.170Z,10.58
2019-03-29T08:27:13.258Z,10.95
2019-03-29T08:29:42.258Z,9.28
2019-03-29T08:32:11.282Z,8.45
2019-03-29T08:34:40.294Z,8.98
2019-03-29T08:37:09.453Z,9.30
2019-03-29T08:39:38.484Z,8.63
2019-03-29T08:42:07.486Z,7.75
2019-03-29T08:44:36.544Z,7.50
2019-03-29T08:47:05.573Z,7.60
2019-03-29T08:49:34.593Z,7.53
2019-03-29T08:52:03.589Z,7.87
2019-03-29T08:54:32.631Z,7.80
2019-03-29T08:57:01.653Z,7.30
2019-03-29T08:59:30.671Z,6.95
2019-03-29T09:01:59.716Z,6.87
2019-03-29T09:04:28.770Z,6.67
2019-03-29T09:06:57.833Z,6.28
2019-03-29T09:09:26.817Z,6.83
2019-03-29T09:11:55.778Z,7.22
2019-03-29T09:14:31.544Z,6.35
2019-03-29T09:17:01.178Z,7.00
2019-03-29T09:19:30.170Z,6.72
2019-03-29T09:21:59.238Z,7.30
2019-03-29T09:24:28.168Z,6.37
2019-03-29T09:26:57.109Z,6.10
2019-03-29T09:29:26.117Z,5.90
2019-03-29T09:31:55.631Z,5.95
2019-03-29T09:34:24.680Z,5.20
2019-03-29T09:36:53.706Z,5.35
2019-03-29T09:39:22.719Z,5.83
2019-03-29T09:41:51.739Z,5.95
2019-03-29T09:44:20.791Z,6.47
2019-03-29T09:46:49.780Z,6.53
2019-03-29T09:49:18.832Z,6.83
2019-03-29T09:51:47.830Z,6.35
2019-03-29T09:54:20.127Z,6.75
2019-03-29T09:56:48.497Z,6.28
2019-03-29T09:59:17.581Z,6.33
2019-03-29T10:01:46.619Z,5.62
2019-03-29T10:04:15.615Z,6.60
2019-03-29T10:06:44.625Z,6.00
2019-03-29T10:09:13.633Z,5.95
2019-03-29T10:11:42.750Z,6.47
2019-03-29T10:14:11.810Z,7.05
2019-03-29T10:16:40.866Z,6.70
2019-03-29T10:19:09.864Z,7.25
2019-03-29T10:21:38.865Z,6.97
2019-03-29T10:24:07.853Z,7.30
2019-03-29T10:26:36.863Z,6.30
2019-03-29T10:29:05.915Z,6.70
2019-03-29T10:31:34.870Z,6.90
2019-03-29T10:34:03.877Z,6.83
2019-03-29T10:36:32.897Z,6.10
2019-03-29T10:39:01.888Z,6.72
2019-03-29T10:41:34.524Z,7.20
2019-03-29T10:44:03.383Z,6.92
2019-03-29T10:46:32.394Z,7.22
2019-03-29T10:49:01.383Z,7.12
2019-03-29T10:51:30.390Z,7.58
2019-03-29T10:53:59.388Z,7.42
2019-03-29T10:56:34.277Z,7.10
2019-03-29T10:58:59.018Z,7.22
2019-03-29T11:01:28.023Z,7.55
2019-03-29T11:03:57.030Z,7.25
2019-03-29T11:06:26.040Z,8.30
2019-03-29T11:08:55.021Z,7.08
2019-03-29T11:11:24.085Z,7.60
2019-03-29T11:13:56.416Z,7.17
2019-03-29T11:16:23.729Z,7.45
2019-03-29T11:18:52.741Z,7.45
2019-03-29T11:21:21.739Z,7.35
2019-03-29T11:23:50.761Z,7.45
2019-03-29T11:26:19.765Z,7.83
2019-03-29T11:29:13.597Z,7.67
2019-03-29T11:31:42.610Z,8.18
2019-03-29T11:34:11.655Z,7.72
2019-03-29T11:36:40.688Z,7.37
2019-03-29T11:39:09.680Z,7.17
2019-03-29T11:41:38.721Z,6.03
2019-03-29T11:44:07.727Z,8.10
2019-03-29T11:46:36.745Z,7.58
2019-03-29T11:49:05.836Z,6.70
2019-03-29T11:51:34.852Z,7.00
2019-03-29T11:54:03.992Z,7.33
2019-03-29T11:56:32.988Z,8.00
2019-03-29T11:59:02.062Z,8.38
2019-03-29T12:01:31.130Z,7.60
2019-03-29T12:04:00.167Z,8.18
2019-03-29T12:06:29.160Z,8.25
2019-03-29T12:08:58.180Z,8.65
2019-03-29T12:11:27.181Z,7.28
2019-03-29T12:13:56.230Z,7.22
2019-03-29T12:16:25.224Z,7.03
2019-03-29T12:18:54.541Z,7.60
2019-03-29T12:21:23.606Z,7.42
2019-03-29T12:23:52.710Z,7.97
2019-03-29T12:26:21.728Z,8.15
2019-03-29T12:28:50.771Z,8.10
2019-03-29T12:31:19.800Z,8.30
2019-03-29T12:33:48.819Z,8.30
2019-03-29T12:36:17.830Z,7.83
2019-03-29T12:38:46.850Z,7.20
2019-03-29T12:41:15.866Z,7.40
2019-03-29T12:43:54.831Z,8.40
2019-03-29T12:46:15.605Z,7.12
2019-03-29T12:48:44.641Z,6.75
2019-03-29T12:51:13.652Z,7.70
2019-03-29T12:54:11.919Z,8.20
2019-03-29T12:56:39.414Z,8.83
2019-03-29T12:59:08.403Z,8.90
2019-03-29T13:01:39.728Z,8.90
2019-03-29T13:04:09.754Z,9.15
2019-03-29T13:06:38.645Z,8.93
2019-03-29T13:09:07.945Z,10.32
2019-03-29T13:11:37.239Z,9.45
2019-03-29T13:14:10.646Z,9.80
2019-03-29T13:16:36.890Z,8.65
2019-03-29T13:19:05.904Z,8.20
2019-03-29T13:21:34.913Z,7.87
2019-03-29T13:24:03.916Z,8.98
2019-03-29T13:26:32.968Z,8.50
2019-03-29T13:29:01.979Z,7.65
2019-03-29T13:31:31.036Z,8.88
2019-03-29T13:34:00.049Z,7.40
2019-03-29T13:36:29.082Z,8.60
2019-03-29T13:38:58.089Z,8.45
2019-03-29T13:41:27.189Z,8.83
2019-03-29T13:43:56.200Z,8.68
2019-03-29T13:46:25.723Z,7.62
2019-03-29T13:48:54.765Z,6.20
2019-03-29T13:51:24.280Z,7.60
2019-03-29T13:53:53.393Z,8.23
2019-03-29T13:56:22.560Z,9.20
2019-03-29T13:58:51.529Z,8.78
2019-03-29T14:01:20.466Z,9.50
2019-03-29T14:03:49.480Z,8.00
2019-03-29T14:06:18.490Z,8.73
2019-03-29T14:08:47.482Z,8.33
2019-03-29T14:11:16.507Z,8.85
2019-03-29T14:13:45.573Z,10.05
2019-03-29T14:16:19.089Z,9.85
2019-03-29T14:18:48.137Z,8.00
2019-03-29T14:21:17.160Z,9.63
2019-03-29T14:23:46.149Z,9.65
2019-03-29T14:26:16.345Z,7.97
2019-03-29T14:28:45.344Z,9.10
2019-03-29T14:31:14.349Z,8.20
2019-03-29T14:33:43.354Z,9.18
2019-03-29T14:36:12.367Z,9.98
2019-03-29T14:38:41.363Z,9.25
2019-03-29T14:41:10.373Z,9.40
2019-03-29T14:43:39.363Z,9.25
2019-03-29T14:46:08.370Z,8.58
2019-03-29T14:48:37.397Z,9.23
2019-03-29T14:51:06.449Z,8.93
2019-03-29T14:53:35.377Z,9.13
2019-03-29T14:56:04.421Z,7.15
2019-03-29T14:58:33.427Z,9.58
2019-03-29T15:01:02.416Z,9.00
2019-03-29T15:03:31.439Z,9.50
2019-03-29T15:06:01.792Z,9.95
2019-03-29T15:08:31.131Z,9.68
2019-03-29T15:11:00.125Z,11.28
2019-03-29T15:13:29.084Z,8.63
2019-03-29T15:15:58.085Z,9.93
2019-03-29T15:18:27.115Z,10.85
2019-03-29T15:20:56.199Z,10.13
2019-03-29T15:23:25.230Z,10.15
2019-03-29T15:25:54.240Z,9.48
2019-03-29T15:28:23.293Z,11.05
2019-03-29T15:31:01.522Z,9.68
2019-03-29T15:33:30.371Z,9.65
2019-03-29T15:35:59.352Z,9.20
2019-03-29T15:38:28.374Z,11.43
2019-03-29T15:40:57.438Z,10.10
2019-03-29T15:43:26.523Z,9.48
2019-03-29T15:45:55.533Z,10.25
2019-03-29T15:48:24.567Z,10.78
2019-03-29T15:50:54.528Z,10.98
2019-03-29T15:53:23.485Z,11.33
2019-03-29T15:55:52.502Z,10.82
2019-03-29T15:58:21.496Z,10.63
2019-03-29T16:00:51.571Z,10.43
2019-03-29T16:03:20.588Z,10.15
2019-03-29T16:05:49.582Z,11.30
2019-03-29T16:08:18.625Z,10.20
2019-03-29T16:10:47.638Z,10.80
2019-03-29T16:13:16.677Z,10.53
2019-03-29T16:15:45.720Z,10.25
2019-03-29T16:18:14.722Z,10.25
2019-03-29T16:20:43.722Z,11.55
2019-03-29T16:23:12.763Z,11.12
2019-03-29T16:25:41.776Z,11.40
2019-03-29T16:28:10.833Z,10.98
2019-03-29T16:30:39.759Z,10.93
2019-03-29T16:33:08.820Z,11.68
2019-03-29T16:35:37.855Z,11.57
2019-03-29T16:38:06.929Z,10.70
2019-03-29T16:40:35.919Z,12.07
2019-03-29T16:43:06.485Z,10.95
2019-03-29T16:45:47.182Z,10.28
2019-03-29T16:48:06.899Z,11.57
2019-03-29T16:50:36.114Z,10.88
2019-03-29T16:53:05.183Z,15.32
2019-03-29T16:55:34.342Z,10.60
2019-03-29T16:58:03.368Z,11.48
2019-03-29T17:00:32.316Z,10.68
2019-03-29T17:03:01.313Z,10.20
2019-03-29T17:05:30.329Z,10.57
2019-03-29T17:07:59.270Z,11.10
2019-03-29T17:10:29.249Z,15.17
2019-03-29T17:12:58.204Z,13.40
2019-03-29T17:15:27.220Z,11.87
2019-03-29T17:17:56.264Z,12.50
2019-03-29T17:20:25.282Z,10.43
2019-03-29T17:22:54.269Z,9.83
2019-03-29T17:25:23.293Z,10.00
2019-03-29T17:27:52.435Z,10.50
2019-03-29T17:30:22.953Z,10.40
2019-03-29T17:32:51.958Z,11.17
2019-03-29T17:35:21.165Z,11.23
2019-03-29T17:37:50.133Z,9.80
2019-03-29T17:40:19.154Z,10.70
2019-03-29T17:42:49.221Z,9.73
2019-03-29T17:45:18.232Z,9.33
2019-03-29T17:47:47.260Z,11.10
2019-03-29T17:50:16.258Z,10.47
2019-03-29T17:52:46.861Z,10.63
2019-03-29T17:55:15.878Z,9.77
2019-03-29T17:57:44.866Z,9.83
2019-03-29T18:00:15.798Z,11.40
2019-03-29T18:02:44.801Z,11.20
2019-03-29T18:05:13.813Z,10.53
2019-03-29T18:07:43.878Z,8.20
2019-03-29T18:10:12.990Z,9.07
2019-03-29T18:12:41.993Z,9.90
2019-03-29T18:15:11.385Z,9.23
2019-03-29T18:17:40.458Z,10.53
2019-03-29T18:20:09.560Z,8.17
2019-03-29T18:22:38.577Z,9.13
2019-03-29T18:25:07.983Z,10.53
2019-03-29T18:27:36.969Z,9.03
2019-03-29T18:30:06.741Z,9.57
2019-03-29T18:32:35.936Z,11.50
2019-03-29T18:35:06.150Z,9.77
2019-03-29T18:37:35.239Z,10.33
2019-03-29T18:40:05.429Z,11.47
2019-03-29T18:42:34.432Z,9.97
2019-03-29T18:45:04.832Z,9.70
2019-03-29T18:47:33.818Z,7.93
2019-03-29T18:50:02.890Z,8.57
2019-03-29T18:52:31.897Z,9.47
2019-03-29T18:55:00.827Z,9.57
2019-03-29T18:57:30.063Z,9.70
2019-03-29T18:59:59.033Z,9.87
2019-03-29T19:09:01.164Z,9.77
2019-03-29T19:11:31.813Z,11.23
2019-03-29T19:14:00.802Z,10.63
2019-03-29T19:19:58.895Z,10.33
2019-03-29T19:22:28.055Z,10.27
2019-03-29T19:24:57.102Z,10.57
2019-03-29T19:27:26.127Z,10.17
2019-03-29T19:29:55.142Z,12.10
2019-03-29T19:32:24.143Z,13.23
2019-03-29T19:34:53.134Z,9.33
2019-03-29T19:37:22.142Z,11.03
2019-03-29T19:39:51.136Z,12.37
2019-03-29T19:42:20.087Z,11.07
2019-03-29T19:44:49.067Z,11.70
2019-03-29T19:47:19.076Z,12.07
2019-03-29T19:49:48.154Z,13.63
2019-03-29T19:52:17.184Z,10.73
2019-03-29T19:54:46.213Z,11.43
2019-03-29T19:57:15.232Z,10.57
2019-03-29T19:59:47.866Z,14.73
2019-03-29T20:02:14.885Z,14.30
2019-03-29T20:04:43.938Z,12.87
2019-03-29T20:07:12.958Z,14.83
2019-03-29T20:09:42.282Z,14.10
2019-03-29T20:12:11.259Z,13.03
2019-03-29T20:14:40.256Z,11.17
2019-03-29T20:17:09.185Z,13.93
2019-03-29T20:19:38.124Z,14.10
2019-03-29T20:22:07.124Z,12.83
2019-03-29T20:24:36.182Z,10.73
2019-03-29T20:27:05.186Z,11.70
2019-03-29T20:29:34.216Z,10.87
2019-03-29T20:32:03.226Z,11.77
2019-03-29T20:34:32.308Z,13.73
2019-03-29T20:37:01.233Z,13.90
2019-03-29T20:39:30.182Z,12.83
2019-03-29T20:41:59.182Z,11.73
2019-03-29T20:44:28.183Z,10.63
2019-03-29T20:46:57.247Z,13.97
2019-03-29T20:49:26.265Z,13.83
2019-03-29T20:51:55.251Z,13.73
2019-03-29T20:54:24.461Z,14.50
2019-03-29T20:56:53.454Z,14.07
2019-03-29T20:59:22.504Z,14.70
2019-03-29T21:01:52.816Z,18.47
2019-03-29T21:04:22.043Z,18.77
2019-03-29T21:06:51.098Z,17.30
2019-03-29T21:09:20.117Z,18.33
2019-03-29T21:11:49.418Z,17.77
2019-03-29T21:14:18.390Z,15.13
2019-03-29T21:16:47.445Z,15.23
2019-03-29T21:19:16.432Z,14.03
2019-03-29T21:21:45.491Z,16.77
2019-03-29T21:24:15.575Z,14.77
2019-03-29T21:26:44.622Z,16.53
2019-03-29T21:29:13.568Z,16.07
2019-03-29T21:31:42.565Z,16.97
2019-03-29T21:34:11.513Z,15.37
2019-03-29T21:36:42.141Z,14.93
2019-03-29T21:39:13.416Z,15.43
2019-03-29T21:41:42.414Z,15.63
2019-03-29T21:44:11.422Z,14.50
2019-03-29T21:46:40.426Z,21.60
2019-03-29T21:49:09.481Z,17.07
2019-03-29T21:51:38.493Z,17.17
2019-03-29T21:54:07.531Z,17.83
2019-03-29T21:56:36.509Z,21.77
2019-03-29T21:59:05.556Z,20.60
2019-03-29T22:01:34.495Z,20.90
2019-03-29T22:04:03.495Z,18.50
2019-03-29T22:06:32.510Z,18.00
2019-03-29T22:09:01.521Z,18.10
2019-03-29T22:11:32.173Z,17.80
2019-03-29T22:14:01.274Z,16.13
2019-03-29T22:16:30.277Z,18.90
2019-03-29T22:18:59.267Z,19.53
2019-03-29T22:21:28.274Z,25.40
2019-03-29T22:23:57.265Z,18.37
2019-03-29T22:26:26.271Z,19.23
2019-03-29T22:28:55.277Z,14.97
2019-03-29T22:31:24.295Z,14.37
2019-03-29T22:33:53.331Z,14.63
2019-03-29T22:36:23.288Z,15.20
2019-03-29T22:38:52.289Z,15.80
2019-03-29T22:41:21.227Z,14.93
2019-03-29T22:43:50.226Z,14.47
2019-03-29T22:46:19.256Z,18.70
2019-03-29T22:48:52.971Z,19.77
2019-03-29T22:51:18.962Z,18.77
2019-03-29T22:53:47.941Z,20.23
2019-03-29T22:56:16.972Z,15.90
2019-03-29T22:58:45.984Z,17.10
2019-03-29T23:01:15.095Z,19.70
2019-03-29T23:03:45.778Z,21.57
2019-03-29T23:06:14.781Z,16.80
2019-03-29T23:08:43.717Z,17.70
2019-03-29T23:11:14.159Z,17.77
2019-03-29T23:13:43.413Z,19.47
2019-03-29T23:16:12.479Z,17.73
2019-03-29T23:18:41.467Z,16.40
2019-03-29T23:21:10.485Z,18.30
2019-03-29T23:23:39.404Z,17.40
2019-03-29T23:26:08.424Z,17.73
2019-03-29T23:28:37.424Z,19.10
2019-03-29T23:31:06.545Z,22.13
2019-03-29T23:33:35.660Z,20.63
2019-03-29T23:36:04.725Z,18.70
2019-03-29T23:38:33.821Z,16.00
2019-03-29T23:41:03.404Z,16.00
2019-03-29T23:43:32.606Z,15.97
2019-03-29T23:46:01.608Z,19.20
2019-03-29T23:48:30.623Z,20.57
2019-03-29T23:50:59.655Z,18.60
2019-03-29T23:53:28.752Z,23.00
2019-03-29T23:55:57.759Z,20.73
2019-03-29T23:58:26.767Z,20.47
